Time;durP1;ratioP1;P1;durP2;ratioP2;P2;SDS_P1;SDS_P2;PMS_P1;PMS_P2;Temp;Humidity;BMP_temperature;BMP_pressure;BME280_temperature;BME280_humidity;BME280_pressure;Samples;Min_cycle;Max_cycle;Signal;HPM_P1;HPM_P2
2023/03/16 00:00:42;;;;;;;11.60;8.10;;;-0.20;99.90;;;;;;4995792;28;20430;-76
2023/03/16 00:03:08;;;;;;;12.10;8.07;;;-0.30;99.90;;;;;;5004132;28;20275;-74
2023/03/16 00:05:34;;;;;;;11.77;8.47;;;-0.30;99.90;;;;;;4995457;28;20265;-74
2023/03/16 00:07:59;;;;;;;11.07;8.40;;;-0.30;99.90;;;;;;4992024;28;20455;-76
2023/03/16 00:10:26;;;;;;;10.80;7.90;;;-0.30;99.90;;;;;;4991990;28;20197;-79
2023/03/16 00:12:55;;;;;;;14.50;8.93;;;-0.30;99.90;;;;;;4999262;28;20201;-76
2023/03/16 00:15:21;;;;;;;12.50;8.27;;;-0.30;99.90;;;;;;4992210;28;20468;-75
2023/03/16 00:17:47;;;;;;;12.60;8.77;;;-0.30;99.90;;;;;;4999502;28;20988;-76
2023/03/16 00:20:17;;;;;;;11.50;8.87;;;-0.30;99.90;;;;;;4991567;28;20509;-77
2023/03/16 00:22:43;;;;;;;14.43;9.40;;;-0.30;99.90;;;;;;4991455;28;20202;-75
2023/03/16 00:25:11;;;;;;;11.40;8.40;;;-0.30;99.90;;;;;;4991936;28;20482;-73
2023/03/16 00:27:37;;;;;;;11.00;8.07;;;-0.30;99.90;;;;;;4999621;28;20417;-72
2023/03/16 00:30:03;;;;;;;13.60;10.17;;;-0.40;99.90;;;;;;4998204;28;20443;-73
2023/03/16 00:32:32;;;;;;;10.17;7.50;;;-0.40;99.90;;;;;;4991264;28;20232;-73
2023/03/16 00:34:58;;;;;;;15.57;8.80;;;-0.40;99.90;;;;;;4991203;28;21016;-73
2023/03/16 00:37:25;;;;;;;16.97;9.77;;;-0.40;99.90;;;;;;4990431;28;20427;-72
2023/03/16 00:39:54;;;;;;;10.87;8.73;;;-0.40;99.90;;;;;;4997416;28;20429;-73
2023/03/16 00:42:22;;;;;;;12.13;8.93;;;-0.40;99.90;;;;;;4989701;28;20460;-74
2023/03/16 00:44:48;;;;;;;12.80;9.10;;;-0.40;99.90;;;;;;5005235;28;20476;-73
2023/03/16 00:47:13;;;;;;;12.40;9.23;;;-0.40;99.90;;;;;;4994495;28;20467;-72
2023/03/16 00:49:41;;;;;;;13.13;9.00;;;-0.40;99.90;;;;;;5000525;28;20269;-73
2023/03/16 00:52:08;;;;;;;14.83;8.60;;;-0.40;99.90;;;;;;4990313;28;20525;-72
2023/03/16 00:54:34;;;;;;;12.00;9.13;;;-0.50;99.90;;;;;;4991385;28;20434;-73
2023/03/16 00:57:00;;;;;;;17.80;9.60;;;-0.50;99.90;;;;;;5007174;28;20462;-73
2023/03/16 00:59:28;;;;;;;16.90;10.27;;;-0.50;99.90;;;;;;4997912;28;20203;-72
2023/03/16 01:01:54;;;;;;;12.40;8.83;;;-0.50;99.90;;;;;;5000209;28;20446;-72
2023/03/16 01:04:21;;;;;;;16.10;9.63;;;-0.60;99.90;;;;;;4999539;28;20430;-72
2023/03/16 01:06:47;;;;;;;12.67;8.80;;;-0.60;99.90;;;;;;4992489;28;20516;-74
2023/03/16 01:09:13;;;;;;;12.73;8.73;;;-0.60;99.90;;;;;;5006150;28;20450;-73
2023/03/16 01:11:44;;;;;;;14.00;9.13;;;-0.70;99.90;;;;;;4990899;28;21004;-71
2023/03/16 01:14:10;;;;;;;13.77;10.20;;;-0.70;99.90;;;;;;5005554;28;20453;-72
2023/03/16 01:16:35;;;;;;;11.80;8.77;;;-0.70;99.90;;;;;;4998897;28;20470;-72
2023/03/16 01:19:01;;;;;;;10.60;8.70;;;-0.70;99.90;;;;;;4994782;28;21019;-73
2023/03/16 01:21:27;;;;;;;11.33;8.60;;;-0.70;99.90;;;;;;5002850;28;20627;-72
2023/03/16 01:23:53;;;;;;;13.40;9.13;;;-0.80;99.90;;;;;;4993569;28;20194;-71
2023/03/16 01:26:19;;;;;;;15.53;9.20;;;-0.80;99.90;;;;;;5009805;28;20435;-76
2023/03/16 01:28:46;;;;;;;15.40;9.57;;;-0.70;99.90;;;;;;5002804;28;20191;-73
2023/03/16 01:31:15;;;;;;;10.60;8.37;;;-0.70;99.90;;;;;;4998903;28;20474;-73
2023/03/16 01:33:42;;;;;;;12.13;8.40;;;-0.80;99.90;;;;;;5014177;28;20427;-71
2023/03/16 01:36:12;;;;;;;11.60;8.00;;;-0.70;99.90;;;;;;5002675;28;20475;-74
2023/03/16 01:38:38;;;;;;;12.03;8.33;;;-0.70;99.90;;;;;;4994934;28;20934;-73
2023/03/16 01:41:04;;;;;;;8.30;7.50;;;-0.80;99.90;;;;;;4997435;28;20513;-72
2023/03/16 01:43:32;;;;;;;12.13;8.60;;;-0.80;99.90;;;;;;5007145;28;20440;-73
2023/03/16 01:46:03;;;;;;;11.83;9.13;;;-0.80;99.90;;;;;;4996625;28;20794;-73
2023/03/16 01:48:36;;;;;;;9.63;8.50;;;-0.90;99.90;;;;;;4999497;28;20525;-75
2023/03/16 01:51:20;;;;;;;14.33;7.80;;;-0.90;99.90;;;;;;5002149;28;20459;-72
2023/03/16 01:53:47;;;;;;;11.83;7.70;;;-0.90;99.90;;;;;;4994834;28;21023;-73
2023/03/16 01:56:17;;;;;;;15.67;9.20;;;-0.90;99.90;;;;;;5010011;28;20881;-73
2023/03/16 01:58:44;;;;;;;12.00;8.47;;;-0.90;99.90;;;;;;5002243;28;20893;-73
2023/03/16 03:31:47;;;;;;;17.40;12.60;;;-1.00;99.90;;;;;;5489836;22;20526;-70
2023/03/16 03:34:12;;;;;;;18.87;13.67;;;-1.00;99.90;;;;;;5013432;28;20462;-71
2023/03/16 03:36:40;;;;;;;20.90;12.67;;;-1.00;99.90;;;;;;5024137;28;20494;-72
2023/03/16 03:39:06;;;;;;;16.63;12.20;;;-0.90;99.90;;;;;;5028022;28;20931;-74
2023/03/16 03:41:32;;;;;;;21.33;13.50;;;-0.80;99.90;;;;;;5019739;28;20471;-72
2023/03/16 03:43:59;;;;;;;18.33;13.53;;;-0.80;99.90;;;;;;5011485;28;20444;-72
2023/03/16 03:46:25;;;;;;;17.53;12.53;;;-0.70;99.90;;;;;;5024700;28;20455;-72
2023/03/16 03:48:50;;;;;;;17.50;11.57;;;-0.70;99.90;;;;;;5014353;28;20478;-73
2023/03/16 03:51:16;;;;;;;19.03;13.30;;;-0.70;99.90;;;;;;5014177;28;20526;-72
2023/03/16 03:53:42;;;;;;;19.03;11.70;;;-0.80;99.90;;;;;;5029781;28;20283;-72
2023/03/16 03:56:07;;;;;;;16.20;12.50;;;-0.80;99.90;;;;;;5028068;28;20243;-72
2023/03/16 03:58:33;;;;;;;20.27;13.00;;;-0.90;99.90;;;;;;5025799;28;20640;-73
2023/03/16 04:00:58;;;;;;;17.20;11.17;;;-0.90;99.90;;;;;;5020169;28;20210;-73
2023/03/16 04:03:24;;;;;;;16.87;13.13;;;-0.90;99.90;;;;;;5024453;28;20184;-75
2023/03/16 04:05:49;;;;;;;15.50;11.90;;;-0.80;99.90;;;;;;5022467;28;20194;-74
2023/03/16 04:08:15;;;;;;;17.30;12.50;;;-0.90;99.90;;;;;;5007776;28;20194;-75
2023/03/16 04:10:41;;;;;;;18.10;12.43;;;-0.90;99.90;;;;;;5030355;28;20211;-75
2023/03/16 04:13:07;;;;;;;15.87;12.03;;;-0.90;99.90;;;;;;5029002;28;20195;-75
2023/03/16 04:15:34;;;;;;;16.13;11.50;;;-0.90;99.90;;;;;;5030812;28;20255;-75
2023/03/16 04:17:59;;;;;;;19.93;13.13;;;-0.90;99.90;;;;;;5012996;28;20490;-74
2023/03/16 04:20:25;;;;;;;16.03;12.13;;;-0.90;99.90;;;;;;5010967;28;20434;-75
2023/03/16 04:22:57;;;;;;;19.80;12.47;;;-0.90;99.90;;;;;;5010737;28;20570;-73
2023/03/16 04:25:25;;;;;;;22.93;13.83;;;-0.90;99.90;;;;;;5012270;28;20570;-74
2023/03/16 04:27:51;;;;;;;20.57;13.20;;;-0.80;99.90;;;;;;5012023;28;20432;-72
2023/03/16 04:30:16;;;;;;;21.07;13.47;;;-0.90;99.90;;;;;;5003249;28;20445;-72
2023/03/16 04:32:42;;;;;;;20.57;14.57;;;-0.90;99.90;;;;;;5010896;28;20228;-73
2023/03/16 04:35:09;;;;;;;17.33;12.20;;;-0.90;99.90;;;;;;5010537;28;20207;-73
2023/03/16 04:37:34;;;;;;;20.90;13.93;;;-0.90;99.90;;;;;;5011233;28;20556;-73
2023/03/16 04:40:08;;;;;;;19.60;12.17;;;-0.90;99.90;;;;;;5010467;28;20442;-73
2023/03/16 04:42:33;;;;;;;17.70;12.90;;;-0.90;99.90;;;;;;5010892;28;20204;-74
2023/03/16 04:44:59;;;;;;;16.43;12.53;;;-0.90;99.90;;;;;;5010615;28;20434;-72
2023/03/16 04:47:24;;;;;;;17.60;12.27;;;-0.90;99.90;;;;;;5023557;28;20191;-74
2023/03/16 04:49:50;;;;;;;17.40;11.37;;;-0.90;99.90;;;;;;5033910;28;20233;-73
2023/03/16 04:52:15;;;;;;;17.10;12.10;;;-0.90;99.90;;;;;;5022705;28;20210;-72
2023/03/16 04:54:41;;;;;;;18.60;11.60;;;-0.90;99.90;;;;;;5022152;28;20186;-73
2023/03/16 04:57:07;;;;;;;15.27;12.40;;;-0.90;99.90;;;;;;5031813;28;20216;-73
2023/03/16 04:59:32;;;;;;;18.27;12.20;;;-1.00;99.90;;;;;;5013607;28;20181;-72
2023/03/16 05:01:58;;;;;;;17.43;12.60;;;-1.00;99.90;;;;;;5014943;28;20576;-73
2023/03/16 05:04:23;;;;;;;18.70;13.40;;;-1.00;99.90;;;;;;5034296;28;20186;-72
2023/03/16 05:06:50;;;;;;;25.40;13.77;;;-1.00;99.90;;;;;;5034028;28;20642;-73
2023/03/16 05:09:15;;;;;;;23.17;13.80;;;-1.00;99.90;;;;;;5029466;28;20691;-73
2023/03/16 05:11:41;;;;;;;23.03;12.50;;;-1.00;99.90;;;;;;5014329;28;20451;-73
2023/03/16 05:14:06;;;;;;;19.47;12.90;;;-1.00;99.90;;;;;;5014271;28;20664;-73
2023/03/16 05:16:32;;;;;;;18.57;12.77;;;-1.00;99.90;;;;;;5014550;28;20257;-71
2023/03/16 05:18:59;;;;;;;17.77;11.90;;;-1.00;99.90;;;;;;5013981;28;20204;-71
2023/03/16 05:21:24;;;;;;;19.60;12.37;;;-1.00;99.90;;;;;;5014665;28;20202;-72
2023/03/16 05:23:50;;;;;;;15.00;10.50;;;-1.00;99.90;;;;;;5012871;28;20538;-72
2023/03/16 05:26:17;;;;;;;20.30;12.90;;;-0.90;99.90;;;;;;5024135;28;20191;-71
2023/03/16 05:28:43;;;;;;;17.70;11.63;;;-0.90;99.90;;;;;;5023146;28;20188;-72
2023/03/16 05:31:08;;;;;;;19.90;13.20;;;-0.80;99.90;;;;;;5033449;28;20492;-72
2023/03/16 05:33:34;;;;;;;20.27;12.33;;;-0.80;99.90;;;;;;5034211;28;20854;-71
2023/03/16 05:36:01;;;;;;;19.00;12.73;;;-0.70;99.90;;;;;;5033116;28;20205;-71
2023/03/16 05:38:28;;;;;;;21.10;12.83;;;-0.70;99.90;;;;;;5033775;28;20216;-71
2023/03/16 05:40:53;;;;;;;19.40;12.90;;;-0.70;99.90;;;;;;5033556;28;20432;-71
2023/03/16 05:43:20;;;;;;;18.50;13.03;;;-0.70;99.90;;;;;;5030031;28;20427;-71
2023/03/16 05:45:46;;;;;;;24.33;14.60;;;-0.70;99.90;;;;;;5029035;28;20236;-71
2023/03/16 05:48:13;;;;;;;23.80;13.63;;;-0.60;99.90;;;;;;5033088;28;20439;-72
2023/03/16 05:50:39;;;;;;;23.97;15.87;;;-0.60;99.90;;;;;;5019331;28;20459;-71
2023/03/16 05:53:05;;;;;;;27.27;14.33;;;-0.60;99.90;;;;;;5021344;28;20461;-70
2023/03/16 05:55:30;;;;;;;19.67;13.73;;;-0.50;99.90;;;;;;5013839;28;20511;-71
2023/03/16 05:57:56;;;;;;;23.27;13.40;;;-0.40;99.90;;;;;;5013375;28;20231;-70
2023/03/16 06:00:22;;;;;;;17.63;13.23;;;-0.40;99.90;;;;;;5012373;28;20219;-70
2023/03/16 06:02:49;;;;;;;22.20;14.60;;;-0.30;99.90;;;;;;5020193;28;20257;-71
2023/03/16 06:05:17;;;;;;;23.77;15.10;;;-0.10;99.90;;;;;;5030120;28;20194;-71
2023/03/16 06:07:43;;;;;;;40.37;15.43;;;0.10;99.90;;;;;;5013478;28;20444;-71
2023/03/16 06:10:10;;;;;;;20.53;14.47;;;0.70;99.90;;;;;;5014299;28;20425;-71
2023/03/16 06:12:36;;;;;;;13.90;11.67;;;1.60;99.90;;;;;;5032496;28;20447;-71
2023/03/16 06:15:02;;;;;;;14.10;10.87;;;2.60;99.90;;;;;;5032237;28;20424;-70
2023/03/16 06:17:28;;;;;;;16.03;11.63;;;3.20;99.90;;;;;;5033062;28;20467;-71
2023/03/16 06:19:53;;;;;;;18.10;11.87;;;3.60;99.90;;;;;;5024413;28;20431;-72
2023/03/16 06:22:19;;;;;;;20.17;11.90;;;4.30;99.90;;;;;;5012711;28;20281;-72
2023/03/16 06:24:44;;;;;;;17.90;11.37;;;4.80;99.90;;;;;;5013293;28;20185;-72
2023/03/16 06:27:10;;;;;;;20.97;12.90;;;5.60;99.90;;;;;;5009414;28;20217;-72
2023/03/16 06:29:36;;;;;;;14.53;10.90;;;6.50;99.90;;;;;;5012926;28;20257;-72
2023/03/16 06:32:02;;;;;;;17.33;12.33;;;6.80;99.90;;;;;;5020512;28;20229;-72
2023/03/16 06:34:27;;;;;;;14.73;11.83;;;7.10;99.90;;;;;;5032267;28;20248;-73
2023/03/16 06:36:53;;;;;;;13.97;11.53;;;7.00;99.90;;;;;;5030526;28;20198;-72
2023/03/16 06:39:18;;;;;;;13.10;11.20;;;7.30;99.90;;;;;;5030916;28;20190;-70
2023/03/16 06:41:44;;;;;;;19.23;11.80;;;7.40;99.90;;;;;;5031466;28;20201;-72
2023/03/16 06:44:10;;;;;;;13.03;11.20;;;8.10;99.90;;;;;;5022384;28;20194;-72
2023/03/16 06:46:36;;;;;;;17.07;12.10;;;8.00;99.90;;;;;;5018150;28;20239;-72
2023/03/16 06:49:03;;;;;;;16.03;12.00;;;8.40;99.90;;;;;;5023499;28;20432;-71
2023/03/16 06:51:28;;;;;;;15.00;12.20;;;8.70;99.90;;;;;;5012460;28;20457;-72
2023/03/16 06:53:54;;;;;;;13.43;12.03;;;8.90;99.90;;;;;;5012884;28;20433;-72
2023/03/16 06:56:19;;;;;;;13.73;12.07;;;9.00;99.90;;;;;;5012266;28;20218;-72
2023/03/16 06:58:45;;;;;;;14.13;12.30;;;9.40;99.90;;;;;;5012750;28;20209;-73
2023/03/16 07:01:11;;;;;;;16.47;12.90;;;10.40;99.90;;;;;;5021503;28;20217;-72
2023/03/16 07:03:37;;;;;;;17.10;13.63;;;10.60;99.90;;;;;;5032012;28;20236;-72
2023/03/16 07:06:02;;;;;;;14.30;12.47;;;10.90;99.90;;;;;;5031372;28;20445;-72
2023/03/16 07:08:28;;;;;;;157.40;51.20;;;11.00;99.90;;;;;;5032080;28;20593;-73
2023/03/16 07:10:53;;;;;;;11.53;10.33;;;11.30;99.90;;;;;;5016183;28;20222;-73
2023/03/16 07:13:19;;;;;;;19.30;13.07;;;12.10;99.90;;;;;;5011816;28;20226;-74
2023/03/16 07:15:45;;;;;;;12.47;11.00;;;12.50;99.90;;;;;;5012252;28;20206;-73
2023/03/16 07:18:11;;;;;;;13.80;11.70;;;12.80;99.90;;;;;;5029262;28;20267;-73
2023/03/16 07:20:37;;;;;;;13.80;11.07;;;12.40;99.90;;;;;;5031477;28;20261;-72
2023/03/16 07:23:03;;;;;;;13.80;12.40;;;12.70;99.90;;;;;;5030926;28;20452;-72
2023/03/16 07:25:30;;;;;;;12.23;10.93;;;13.00;99.90;;;;;;5031559;28;20428;-73
2023/03/16 07:27:56;;;;;;;14.83;11.70;;;12.90;99.90;;;;;;5031483;28;20464;-73
2023/03/16 07:30:21;;;;;;;14.53;12.67;;;12.40;99.90;;;;;;5028142;28;20955;-72
2023/03/16 07:32:47;;;;;;;13.53;11.97;;;11.70;99.90;;;;;;5011136;28;20236;-72
2023/03/16 07:35:12;;;;;;;15.17;11.87;;;11.20;99.90;;;;;;5011576;28;20195;-72
2023/03/16 07:37:38;;;;;;;16.60;11.33;;;11.00;99.90;;;;;;5016975;28;20724;-73
2023/03/16 07:40:07;;;;;;;16.40;11.70;;;10.80;99.90;;;;;;5030772;28;20605;-72
2023/03/16 07:42:34;;;;;;;15.83;11.13;;;10.60;99.90;;;;;;5031026;28;20208;-73
2023/03/16 07:45:00;;;;;;;18.70;13.60;;;10.10;99.90;;;;;;5030921;28;20482;-73
2023/03/16 07:47:26;;;;;;;15.53;12.40;;;9.60;99.90;;;;;;5030882;28;20428;-73
2023/03/16 07:49:51;;;;;;;108.37;23.23;;;9.50;99.90;;;;;;5031180;28;21025;-73
2023/03/16 07:52:17;;;;;;;40.80;13.60;;;9.40;99.90;;;;;;5030557;28;20205;-74
2023/03/16 07:54:42;;;;;;;19.77;11.60;;;9.80;99.90;;;;;;5031182;28;20240;-73
2023/03/16 07:57:08;;;;;;;13.53;12.03;;;9.90;99.90;;;;;;5021865;28;20734;-72
2023/03/16 07:59:34;;;;;;;12.73;10.03;;;9.90;99.90;;;;;;5024123;28;20316;-74
2023/03/16 08:01:59;;;;;;;12.93;11.53;;;10.20;99.90;;;;;;5030315;28;20300;-73
2023/03/16 08:04:25;;;;;;;13.30;10.83;;;10.50;99.90;;;;;;5030591;28;20272;-73
2023/03/16 08:06:58;;;;;;;48.50;12.57;;;10.50;99.90;;;;;;5030678;28;20182;-73
2023/03/16 08:09:27;;;;;;;35.03;14.50;;;10.50;99.90;;;;;;5011972;28;20197;-73
2023/03/16 08:11:52;;;;;;;13.50;10.47;;;10.50;99.90;;;;;;5010671;28;20468;-73
2023/03/16 08:14:18;;;;;;;13.57;10.63;;;10.70;99.90;;;;;;5011057;28;20438;-73
2023/03/16 08:16:43;;;;;;;13.73;11.30;;;10.80;99.90;;;;;;5011156;28;20295;-73
2023/03/16 08:19:10;;;;;;;15.10;9.83;;;11.10;99.90;;;;;;5011130;28;20193;-73
2023/03/16 08:21:36;;;;;;;12.20;9.53;;;11.40;99.90;;;;;;5015287;28;20808;-72
2023/03/16 08:24:01;;;;;;;13.30;9.27;;;11.20;99.90;;;;;;5029854;28;20636;-73
2023/03/16 08:26:27;;;;;;;15.13;9.00;;;11.00;99.90;;;;;;5030252;28;20533;-73
2023/03/16 08:28:53;;;;;;;13.03;8.83;;;10.80;99.90;;;;;;5015974;28;20555;-74
2023/03/16 08:31:19;;;;;;;10.23;8.47;;;10.90;99.90;;;;;;5010296;28;20222;-73
2023/03/16 08:33:46;;;;;;;9.70;8.70;;;11.00;99.90;;;;;;5010965;28;20437;-74
2023/03/16 08:36:14;;;;;;;12.40;9.17;;;11.00;99.90;;;;;;5019620;28;20475;-71
2023/03/16 08:38:40;;;;;;;11.90;8.63;;;11.10;99.90;;;;;;5030455;28;20524;-72
2023/03/16 08:41:07;;;;;;;9.03;8.13;;;11.00;99.90;;;;;;5029730;28;20432;-71
2023/03/16 08:43:33;;;;;;;10.83;8.80;;;11.40;99.90;;;;;;5022149;28;20424;-72
2023/03/16 08:46:00;;;;;;;11.20;8.43;;;11.50;99.90;;;;;;5015086;28;20907;-72
2023/03/16 08:48:26;;;;;;;10.00;7.93;;;11.70;99.90;;;;;;5010728;28;20491;-72
2023/03/16 08:50:52;;;;;;;9.93;7.27;;;11.40;99.90;;;;;;5010539;28;20988;-72
2023/03/16 08:53:18;;;;;;;11.10;7.03;;;11.50;99.90;;;;;;5010447;28;20690;-71
2023/03/16 08:55:44;;;;;;;11.43;8.40;;;11.40;99.90;;;;;;5010759;28;20464;-72
2023/03/16 08:58:11;;;;;;;13.43;8.07;;;11.30;99.90;;;;;;5010525;28;20178;-70
2023/03/16 09:00:37;;;;;;;9.13;7.60;;;11.70;99.90;;;;;;5014279;28;20182;-71
2023/03/16 09:03:03;;;;;;;9.17;7.47;;;11.90;99.90;;;;;;5029685;28;20429;-71
2023/03/16 09:05:30;;;;;;;10.10;7.67;;;12.00;99.90;;;;;;5029664;28;20436;-72
2023/03/16 09:07:56;;;;;;;10.97;7.30;;;12.10;99.90;;;;;;5030028;28;20428;-72
2023/03/16 09:10:22;;;;;;;8.00;6.57;;;12.20;99.90;;;;;;5029541;28;20440;-71
2023/03/16 09:12:51;;;;;;;9.37;7.20;;;12.20;99.90;;;;;;5029624;28;20429;-72
2023/03/16 09:15:18;;;;;;;6.70;5.67;;;12.60;99.90;;;;;;5029659;28;20432;-75
2023/03/16 09:17:44;;;;;;;9.63;5.97;;;12.60;99.90;;;;;;5028914;28;20855;-71
2023/03/16 09:20:11;;;;;;;6.47;5.80;;;12.70;99.90;;;;;;5029443;28;20491;-70
2023/03/16 09:22:36;;;;;;;6.37;5.37;;;12.80;99.90;;;;;;5029628;28;20506;-71
2023/03/16 09:25:05;;;;;;;6.50;5.47;;;12.80;99.90;;;;;;5029970;28;20441;-72
2023/03/16 09:27:31;;;;;;;6.10;4.30;;;13.00;99.90;;;;;;5028274;28;20189;-72
2023/03/16 09:29:59;;;;;;;6.37;5.23;;;13.50;99.90;;;;;;5029788;28;20428;-72
2023/03/16 09:32:26;;;;;;;5.87;5.30;;;13.40;99.90;;;;;;5029165;28;20991;-71
2023/03/16 09:34:52;;;;;;;8.43;6.00;;;13.90;99.90;;;;;;5031445;28;20427;-71
2023/03/16 09:37:17;;;;;;;5.13;4.70;;;13.90;99.90;;;;;;5032911;28;20460;-71
2023/03/16 09:39:42;;;;;;;4.80;4.33;;;13.90;99.90;;;;;;5033317;28;20182;-72
2023/03/16 09:42:26;;;;;;;6.90;4.20;;;14.00;99.90;;;;;;5032779;28;20925;-72
2023/03/16 09:45:33;;;;;;;9.97;5.57;;;14.00;99.90;;;;;;5008072;28;20681;-71
2023/03/16 09:48:03;;;;;;;5.90;4.90;;;13.90;99.90;;;;;;5009104;28;20425;-72
2023/03/16 09:50:36;;;;;;;7.53;5.10;;;13.90;99.90;;;;;;5013470;28;20529;-71
2023/03/16 09:53:08;;;;;;;7.93;5.07;;;13.80;99.90;;;;;;5013337;28;20448;-72
2023/03/16 09:55:36;;;;;;;6.80;5.23;;;14.30;99.90;;;;;;5013445;28;20981;-72
2023/03/16 09:58:15;;;;;;;6.13;4.63;;;14.20;99.90;;;;;;5013595;28;20430;-72
2023/03/16 10:00:49;;;;;;;5.97;5.33;;;14.00;99.90;;;;;;5013549;28;20512;-72
2023/03/16 10:03:16;;;;;;;4.90;4.30;;;14.20;99.90;;;;;;5013068;28;20425;-71
2023/03/16 10:05:42;;;;;;;5.83;5.23;;;14.40;99.90;;;;;;5013535;28;20461;-72
2023/03/16 10:08:15;;;;;;;5.87;5.07;;;14.30;99.90;;;;;;5013442;28;20433;-72
2023/03/16 10:11:11;;;;;;;7.13;4.60;;;13.90;99.90;;;;;;5013491;28;20450;-71
2023/03/16 10:13:47;;;;;;;6.57;4.30;;;13.90;99.90;;;;;;5004970;28;20513;-72
2023/03/16 10:16:18;;;;;;;4.80;4.30;;;14.00;99.90;;;;;;5010916;28;20471;-70
2023/03/16 10:18:48;;;;;;;4.17;3.73;;;13.60;99.90;;;;;;5013876;28;20413;-72
2023/03/16 10:21:17;;;;;;;4.87;3.80;;;13.50;99.90;;;;;;5013814;28;20441;-72
2023/03/16 10:23:45;;;;;;;9.00;5.83;;;13.50;99.90;;;;;;5012978;28;20468;-73
2023/03/16 10:26:22;;;;;;;9.60;6.50;;;13.60;99.90;;;;;;5014084;28;20459;-72
2023/03/16 10:28:48;;;;;;;7.70;6.50;;;13.70;99.90;;;;;;5006801;28;20417;-73
2023/03/16 10:31:16;;;;;;;6.97;5.20;;;13.70;99.90;;;;;;5012461;28;20961;-73
2023/03/16 10:33:42;;;;;;;6.90;5.27;;;13.60;99.90;;;;;;5011391;28;20190;-73
2023/03/16 10:36:24;;;;;;;6.13;5.30;;;13.60;99.90;;;;;;5020463;28;20460;-73
2023/03/16 10:38:57;;;;;;;8.40;5.93;;;14.10;99.90;;;;;;5006528;28;20428;-73
2023/03/16 10:41:34;;;;;;;6.70;5.60;;;14.10;99.90;;;;;;5012097;28;20528;-72
2023/03/16 10:44:20;;;;;;;6.60;4.93;;;13.90;99.90;;;;;;5027119;28;20946;-73
2023/03/16 10:46:58;;;;;;;5.80;4.40;;;14.20;99.90;;;;;;5005070;28;20762;-71
2023/03/16 10:49:34;;;;;;;6.43;4.20;;;14.10;99.90;;;;;;5012501;28;20914;-72
2023/03/16 10:52:07;;;;;;;4.10;3.70;;;13.90;99.90;;;;;;5012216;28;20466;-73
2023/03/16 10:54:36;;;;;;;6.33;4.00;;;13.90;99.90;;;;;;5012254;28;20422;-73
2023/03/16 10:57:19;;;;;;;5.27;4.40;;;14.10;99.90;;;;;;5012258;28;20478;-73
2023/03/16 10:59:50;;;;;;;7.27;4.03;;;14.50;99.90;;;;;;5017626;28;20432;-72
2023/03/16 11:02:24;;;;;;;5.10;3.93;;;14.80;99.90;;;;;;5031117;28;20531;-73
2023/03/16 11:04:49;;;;;;;5.70;4.40;;;14.60;99.90;;;;;;5026917;28;20460;-73
2023/03/16 11:07:23;;;;;;;6.77;4.20;;;14.70;99.90;;;;;;5011864;28;20465;-71
2023/03/16 11:09:53;;;;;;;3.43;3.03;;;15.00;99.90;;;;;;5009009;28;20533;-74
2023/03/16 11:12:29;;;;;;;4.70;3.20;;;14.70;99.90;;;;;;5011543;28;20503;-72
2023/03/16 11:15:01;;;;;;;3.27;2.97;;;14.50;99.90;;;;;;5012196;28;20417;-73
2023/03/16 11:17:42;;;;;;;8.07;4.40;;;14.50;99.90;;;;;;5011984;28;20461;-72
2023/03/16 11:20:17;;;;;;;3.57;3.27;;;14.60;99.90;;;;;;5012193;28;20500;-72
2023/03/16 11:22:46;;;;;;;3.33;3.07;;;14.60;99.90;;;;;;5004152;28;20445;-73
2023/03/16 11:25:40;;;;;;;3.50;2.97;;;14.40;99.90;;;;;;5012163;28;20425;-72
2023/03/16 11:28:11;;;;;;;320.63;185.43;;;14.40;99.90;;;;;;5007533;28;20461;-73
2023/03/16 11:30:50;;;;;;;5.33;4.33;;;14.00;99.90;;;;;;5011199;28;20483;-72
2023/03/16 11:33:16;;;;;;;2.97;2.73;;;14.30;99.90;;;;;;5008222;28;20440;-71
2023/03/16 11:35:56;;;;;;;3.00;2.40;;;14.60;99.90;;;;;;5011783;28;20472;-73
2023/03/16 11:38:47;;;;;;;4.20;3.63;;;14.60;99.90;;;;;;5012242;28;20670;-72
2023/03/16 11:41:26;;;;;;;5.33;3.13;;;14.60;99.90;;;;;;5028047;28;20448;-72
2023/03/16 11:44:00;;;;;;;5.70;4.63;;;14.40;99.90;;;;;;5018695;28;20925;-72
2023/03/16 11:46:32;;;;;;;6.23;4.17;;;14.50;99.90;;;;;;5011797;28;20430;-73
2023/03/16 11:49:31;;;;;;;6.20;3.77;;;14.50;99.90;;;;;;5011687;28;20433;-72
2023/03/16 11:52:11;;;;;;;3.60;2.73;;;14.70;99.90;;;;;;5011180;28;20544;-73
2023/03/16 11:54:47;;;;;;;4.47;4.00;;;14.90;99.90;;;;;;5030269;28;20451;-73
2023/03/16 11:57:34;;;;;;;11.33;8.77;;;14.60;99.90;;;;;;5030318;28;20522;-71
2023/03/16 12:00:37;;;;;;;5.93;4.80;;;14.30;99.90;;;;;;5005757;28;20520;-72
2023/03/16 12:03:28;;;;;;;3.33;2.43;;;14.20;99.90;;;;;;5011067;28;20429;-72
2023/03/16 12:06:24;;;;;;;4.07;3.40;;;14.40;99.90;;;;;;5004974;28;20425;-72
2023/03/16 12:09:21;;;;;;;3.97;3.67;;;14.30;99.90;;;;;;5004372;28;20476;-73
2023/03/16 12:12:04;;;;;;;4.03;3.37;;;14.10;99.90;;;;;;5010932;28;20841;-71
2023/03/16 12:15:02;;;;;;;6.30;3.00;;;13.80;99.90;;;;;;5011110;28;20436;-72
2023/03/16 12:17:30;;;;;;;2.77;2.57;;;14.10;99.90;;;;;;5008169;28;20561;-73
2023/03/16 12:20:12;;;;;;;4.40;2.60;;;13.70;99.90;;;;;;5011097;28;20421;-73
2023/03/16 12:22:45;;;;;;;4.83;2.73;;;13.70;99.90;;;;;;5013373;28;20484;-73
2023/03/16 12:25:20;;;;;;;7.23;2.70;;;13.80;99.90;;;;;;5030721;28;20512;-72
2023/03/16 12:27:48;;;;;;;14.80;9.73;;;14.10;99.90;;;;;;5003474;28;20436;-73
2023/03/16 12:30:42;;;;;;;5.87;3.77;;;13.90;99.90;;;;;;5011135;28;20434;-71
2023/03/16 12:33:21;;;;;;;4.07;3.20;;;13.90;99.90;;;;;;5005833;28;20426;-72
2023/03/16 12:36:18;;;;;;;4.50;3.20;;;13.70;99.90;;;;;;5014904;28;20545;-73
2023/03/16 12:38:55;;;;;;;4.37;3.13;;;13.50;99.90;;;;;;4999712;28;20516;-73
2023/03/16 12:42:09;;;;;;;3.20;2.97;;;13.50;99.90;;;;;;5029694;28;20835;-72
2023/03/16 12:44:44;;;;;;;3.50;3.03;;;13.60;99.90;;;;;;4988158;28;21055;-73
2023/03/16 12:47:22;;;;;;;4.87;2.97;;;13.70;99.90;;;;;;5017701;28;20495;-72
2023/03/16 12:49:49;;;;;;;5.00;3.17;;;13.80;99.90;;;;;;5010950;28;20437;-72
2023/03/16 12:52:15;;;;;;;11.90;4.90;;;13.80;99.90;;;;;;5010628;28;20454;-72
2023/03/16 12:54:52;;;;;;;6.97;4.33;;;13.40;99.90;;;;;;5010656;28;20818;-73
2023/03/16 12:57:19;;;;;;;18.70;10.77;;;13.50;99.90;;;;;;5010833;28;20214;-73
2023/03/16 12:59:49;;;;;;;16.50;5.60;;;13.60;99.90;;;;;;5021883;28;20417;-73
2023/03/16 13:02:33;;;;;;;15.50;8.77;;;13.50;99.90;;;;;;5029869;28;20534;-73
2023/03/16 13:05:06;;;;;;;2.87;2.40;;;13.20;99.90;;;;;;5004418;28;20867;-72
2023/03/16 13:07:32;;;;;;;5.23;2.80;;;13.00;99.90;;;;;;5009636;28;20437;-72
2023/03/16 13:10:01;;;;;;;4.63;3.53;;;13.00;99.90;;;;;;5012476;28;20425;-72
2023/03/16 13:12:35;;;;;;;3.50;3.13;;;12.90;99.90;;;;;;5014825;28;20457;-73
2023/03/16 13:15:15;;;;;;;6.80;2.73;;;13.00;99.90;;;;;;5012839;28;20476;-72
2023/03/16 13:17:41;;;;;;;3.50;2.10;;;13.00;99.90;;;;;;5013864;28;20479;-72
2023/03/16 13:20:12;;;;;;;5.60;3.40;;;13.00;99.90;;;;;;5014317;28;20429;-72
2023/03/16 13:22:48;;;;;;;7.80;3.60;;;13.00;99.90;;;;;;5013842;28;20344;-73
2023/03/16 13:25:35;;;;;;;12.10;2.70;;;13.00;99.90;;;;;;5014440;28;20449;-73
2023/03/16 13:28:00;;;;;;;7.20;3.70;;;13.00;99.90;;;;;;5006742;28;21257;-72
2023/03/16 13:30:45;;;;;;;8.73;3.20;;;12.80;99.90;;;;;;5014015;28;20484;-71
2023/03/16 13:33:24;;;;;;;4.37;3.30;;;12.70;99.90;;;;;;5014022;28;20194;-73
2023/03/16 13:35:51;;;;;;;5.23;3.90;;;12.60;99.90;;;;;;5004280;28;20550;-72
2023/03/16 13:38:26;;;;;;;7.17;3.90;;;12.50;99.90;;;;;;5011744;28;20473;-72
2023/03/16 13:41:13;;;;;;;7.50;4.00;;;12.40;99.90;;;;;;5012665;28;21031;-73
2023/03/16 13:43:42;;;;;;;8.83;3.60;;;12.40;99.90;;;;;;5012235;28;20569;-71
2023/03/16 13:46:16;;;;;;;5.13;3.20;;;12.40;99.90;;;;;;5011705;28;20524;-72
2023/03/16 13:48:42;;;;;;;5.87;3.30;;;12.40;99.90;;;;;;5012300;28;20469;-72
2023/03/16 13:51:17;;;;;;;6.10;2.90;;;12.30;99.90;;;;;;5012527;28;21020;-72
2023/03/16 13:53:43;;;;;;;8.07;3.50;;;12.40;99.90;;;;;;5011843;28;20469;-72
2023/03/16 13:56:14;;;;;;;5.70;3.20;;;12.40;99.90;;;;;;5012736;28;20483;-71
2023/03/16 13:58:44;;;;;;;3.33;2.90;;;12.40;99.90;;;;;;5010843;28;20998;-72
2023/03/16 14:01:19;;;;;;;4.47;2.70;;;12.50;99.90;;;;;;5010735;28;20539;-72
2023/03/16 14:03:46;;;;;;;6.03;3.10;;;12.60;99.90;;;;;;5022382;28;20492;-73
2023/03/16 14:06:24;;;;;;;7.10;3.10;;;12.80;99.90;;;;;;5018249;28;20484;-72
2023/03/16 14:08:53;;;;;;;5.83;3.70;;;12.90;99.90;;;;;;5019447;28;20461;-72
2023/03/16 14:11:18;;;;;;;4.47;2.60;;;13.00;99.90;;;;;;5013124;28;20461;-73
2023/03/16 14:13:53;;;;;;;5.00;3.13;;;13.10;99.90;;;;;;5013263;28;20457;-72
2023/03/16 14:16:20;;;;;;;4.57;4.17;;;13.10;99.90;;;;;;5013510;28;20287;-72
2023/03/16 14:18:50;;;;;;;6.40;2.93;;;13.00;99.90;;;;;;5015392;28;20475;-72
2023/03/16 14:21:23;;;;;;;5.50;3.33;;;13.00;99.90;;;;;;5018511;28;20492;-73